Time;durP1;ratioP1;P1;durP2;ratioP2;P2;SDS_P1;SDS_P2;PMS_P1;PMS_P2;Temp;Humidity;BMP_temperature;BMP_pressure;BME280_temperature;BME280_humidity;BME280_pressure;Samples;Min_cycle;Max_cycle;Signal;HPM_P1;HPM_P2
2021/12/31 00:01:06;;;;;;;6.90;6.10;;;;;;;9.81;100.00;99532.53;5071424;28;20123;-83
2021/12/31 00:03:31;;;;;;;10.50;8.68;;;;;;;9.88;100.00;99545.19;5071361;28;20072;-83
2021/12/31 00:05:57;;;;;;;10.20;7.75;;;;;;;9.96;100.00;99560.44;5071790;28;20399;-83
2021/12/31 00:08:22;;;;;;;7.97;6.47;;;;;;;9.91;100.00;99552.03;5071403;28;20060;-82
2021/12/31 00:10:48;;;;;;;6.82;6.13;;;;;;;9.97;100.00;99557.78;5054656;28;20135;-82
2021/12/31 00:13:13;;;;;;;10.35;7.45;;;;;;;9.94;100.00;99552.72;5071581;28;20040;-87
2021/12/31 00:15:39;;;;;;;8.77;7.35;;;;;;;9.93;100.00;99550.19;5070851;28;20615;-83
2021/12/31 00:18:04;;;;;;;7.95;6.60;;;;;;;9.94;100.00;99544.06;5070769;28;20032;-82
2021/12/31 00:20:30;;;;;;;9.02;7.85;;;;;;;9.97;100.00;99546.53;5054363;28;20071;-83
2021/12/31 00:25:21;;;;;;;7.80;6.63;;;;;;;9.86;100.00;99541.81;5071360;28;20402;-84
2021/12/31 00:27:47;;;;;;;7.53;6.32;;;;;;;9.95;100.00;99556.16;5071419;28;20036;-83
2021/12/31 00:30:13;;;;;;;9.70;7.32;;;;;;;9.86;100.00;99533.16;5071317;28;20032;-83
2021/12/31 00:32:39;;;;;;;8.65;6.85;;;;;;;10.00;100.00;99564.59;5058203;28;20126;-83
2021/12/31 00:35:06;;;;;;;8.95;7.25;;;;;;;10.04;100.00;99558.34;5053877;28;20464;-84
2021/12/31 00:37:35;;;;;;;7.13;6.43;;;;;;;9.86;100.00;99527.94;5052143;28;20028;-83
2021/12/31 00:40:04;;;;;;;9.10;6.55;;;;;;;9.92;100.00;99532.88;5052293;28;20392;-83
2021/12/31 00:42:29;;;;;;;9.23;6.00;;;;;;;9.99;100.00;99540.34;5053028;28;20111;-84
2021/12/31 00:44:55;;;;;;;7.22;6.50;;;;;;;10.02;100.00;99561.91;5051950;28;20116;-84
2021/12/31 00:47:20;;;;;;;7.07;6.38;;;;;;;10.02;100.00;99559.31;5052261;28;20509;-84
2021/12/31 00:49:46;;;;;;;6.78;6.05;;;;;;;9.95;100.00;99548.38;5051898;28;20434;-83
2021/12/31 00:52:12;;;;;;;7.28;5.57;;;;;;;9.78;100.00;99523.13;5052009;28;20032;-83
2021/12/31 00:54:38;;;;;;;7.22;6.40;;;;;;;9.97;100.00;99556.94;5053288;28;20033;-83
2021/12/31 00:57:04;;;;;;;6.72;5.80;;;;;;;9.97;100.00;99562.13;5053154;28;20056;-82
2021/12/31 00:59:34;;;;;;;6.78;6.18;;;;;;;9.98;100.00;99561.22;5051581;28;20467;-81
2021/12/31 01:02:00;;;;;;;6.40;5.80;;;;;;;9.92;100.00;99543.28;5053076;28;20466;-81
2021/12/31 01:04:26;;;;;;;7.10;6.20;;;;;;;9.98;100.00;99545.59;5052697;28;20036;-83
2021/12/31 01:06:52;;;;;;;7.82;6.40;;;;;;;10.02;100.00;99554.13;5051714;28;20027;-82
2021/12/31 01:09:17;;;;;;;7.57;6.80;;;;;;;10.00;100.00;99544.63;5052895;28;20028;-82
2021/12/31 01:11:47;;;;;;;6.30;5.70;;;;;;;9.99;100.00;99545.56;5051347;28;20040;-82
2021/12/31 01:14:37;;;;;;;9.40;5.93;;;;;;;9.96;100.00;99539.63;5052669;28;20092;-82
2021/12/31 01:17:03;;;;;;;10.15;6.10;;;;;;;10.06;100.00;99553.91;5052788;28;20033;-83
2021/12/31 01:19:48;;;;;;;7.80;5.95;;;;;;;9.80;100.00;99520.44;5051126;28;20021;-82
2021/12/31 01:22:21;;;;;;;6.65;5.50;;;;;;;9.99;100.00;99545.56;5052449;28;20028;-82
2021/12/31 01:24:47;;;;;;;7.82;6.53;;;;;;;10.02;100.00;99559.31;5052529;28;20025;-82
2021/12/31 01:27:13;;;;;;;7.03;6.32;;;;;;;10.10;100.00;99571.06;5052854;28;20032;-82
2021/12/31 01:29:39;;;;;;;6.75;5.78;;;;;;;10.08;100.00;99575.50;5052639;28;20025;-82
2021/12/31 01:32:05;;;;;;;6.20;5.60;;;;;;;10.07;100.00;99570.34;5052624;28;20373;-82
2021/12/31 01:34:30;;;;;;;6.22;5.63;;;;;;;10.08;100.00;99582.47;5052242;28;20036;-82
2021/12/31 01:36:56;;;;;;;7.63;6.25;;;;;;;10.07;100.00;99584.25;5050990;28;20025;-82
2021/12/31 01:39:22;;;;;;;7.30;6.20;;;;;;;9.97;100.00;99565.56;5052572;28;20028;-82
2021/12/31 01:41:47;;;;;;;6.88;6.00;;;;;;;9.93;100.00;99556.22;5052604;28;20025;-82
2021/12/31 01:44:13;;;;;;;8.90;7.07;;;;;;;10.07;100.00;99583.38;5052463;28;20037;-82
2021/12/31 01:46:59;;;;;;;8.57;6.78;;;;;;;9.91;100.00;99560.66;5052039;28;20021;-82
2021/12/31 01:49:32;;;;;;;6.85;5.85;;;;;;;10.08;100.00;99588.53;5051978;28;20111;-82
2021/12/31 01:51:57;;;;;;;7.07;6.32;;;;;;;10.06;100.00;99605.94;5051060;28;20055;-82
2021/12/31 01:54:23;;;;;;;7.72;6.47;;;;;;;9.95;100.00;99576.97;5052097;28;20465;-82
2021/12/31 01:56:49;;;;;;;9.60;7.22;;;;;;;9.92;100.00;99571.91;5052261;28;20025;-83
2021/12/31 01:59:16;;;;;;;5.93;5.32;;;;;;;10.05;100.00;99590.41;5051846;28;20047;-82
2021/12/31 02:01:41;;;;;;;7.07;5.43;;;;;;;10.02;100.00;99587.94;5051677;28;20029;-82
2021/12/31 02:04:08;;;;;;;7.22;5.68;;;;;;;9.91;100.00;99565.03;5052086;28;20483;-82
2021/12/31 02:06:34;;;;;;;6.88;5.97;;;;;;;10.05;100.00;99583.44;5050688;28;20411;-83
2021/12/31 02:09:03;;;;;;;8.57;6.30;;;;;;;9.98;100.00;99574.22;5050725;28;20083;-84
2021/12/31 02:11:28;;;;;;;6.57;5.80;;;;;;;10.11;100.00;99590.13;5050409;28;20029;-83
2021/12/31 02:13:55;;;;;;;5.90;5.30;;;;;;;10.08;100.00;99598.09;5051936;28;20033;-83
2021/12/31 02:16:20;;;;;;;6.20;5.60;;;;;;;10.09;100.00;99592.81;5052072;28;20112;-83
2021/12/31 02:18:46;;;;;;;7.07;5.57;;;;;;;10.12;100.00;99592.66;5051794;28;20449;-83
2021/12/31 02:21:12;;;;;;;8.40;5.13;;;;;;;10.02;100.00;99574.94;5050374;28;20048;-83
2021/12/31 02:23:46;;;;;;;5.72;5.03;;;;;;;10.08;100.00;99588.53;5051531;28;20037;-84
2021/12/31 02:26:12;;;;;;;7.38;5.57;;;;;;;10.00;100.00;99572.41;5051827;28;20021;-83
2021/12/31 02:28:39;;;;;;;6.15;5.55;;;;;;;10.03;100.00;99569.69;5051529;28;20029;-83
2021/12/31 02:31:04;;;;;;;7.55;6.05;;;;;;;10.08;100.00;99572.91;5050251;28;20116;-83
2021/12/31 02:33:30;;;;;;;7.03;6.25;;;;;;;10.10;100.00;99583.22;5051543;28;20104;-83
2021/12/31 02:35:58;;;;;;;6.55;5.55;;;;;;;10.16;100.00;99594.22;5050516;28;20040;-83
2021/12/31 02:38:23;;;;;;;6.63;6.00;;;;;;;10.14;100.00;99580.41;5050206;28;20427;-83
2021/12/31 02:40:48;;;;;;;6.65;6.03;;;;;;;10.20;100.00;99587.13;5053068;28;20025;-83
2021/12/31 02:43:14;;;;;;;6.80;6.10;;;;;;;10.10;100.00;99578.88;5055605;28;20120;-83
2021/12/31 02:45:41;;;;;;;8.07;6.28;;;;;;;10.19;100.00;99581.03;5053942;28;20123;-83
2021/12/31 02:48:06;;;;;;;7.28;6.50;;;;;;;10.15;100.00;99576.06;5055746;28;20115;-83
2021/12/31 02:50:39;;;;;;;6.65;5.60;;;;;;;10.17;100.00;99580.28;5054156;28;20289;-83
2021/12/31 02:53:15;;;;;;;6.85;5.93;;;;;;;10.17;100.00;99571.63;5054227;28;20029;-83
2021/12/31 02:55:43;;;;;;;6.78;6.10;;;;;;;10.20;100.00;99587.13;5055315;28;20098;-83
2021/12/31 02:58:09;;;;;;;8.93;6.55;;;;;;;10.21;100.00;99584.44;5053790;28;20481;-83
2021/12/31 03:00:39;;;;;;;6.35;5.50;;;;;;;10.15;100.00;99574.28;5054106;28;20620;-85
2021/12/31 03:03:06;;;;;;;5.90;5.28;;;;;;;10.09;100.00;99558.97;5054089;28;20070;-85
2021/12/31 03:05:34;;;;;;;7.90;5.57;;;;;;;10.19;100.00;99588.84;5053721;28;20040;-84
2021/12/31 03:08:03;;;;;;;7.30;4.93;;;;;;;10.22;100.00;99585.28;5055236;28;20029;-83
2021/12/31 03:10:29;;;;;;;7.13;5.82;;;;;;;10.15;100.00;99574.28;5054979;28;20021;-83
2021/12/31 03:12:56;;;;;;;6.07;5.20;;;;;;;10.04;100.00;99553.16;5053686;28;20126;-83
2021/12/31 03:15:24;;;;;;;5.72;5.20;;;;;;;10.09;100.00;99558.13;5053792;28;20028;-82
2021/12/31 03:17:51;;;;;;;8.02;5.45;;;;;;;10.18;100.00;99575.91;5055135;28;20037;-82
2021/12/31 03:20:25;;;;;;;5.93;5.18;;;;;;;10.26;100.00;99580.81;5050803;28;20029;-81
2021/12/31 03:22:51;;;;;;;7.55;5.78;;;;;;;10.20;100.00;99561.94;5054788;28;20121;-82
2021/12/31 03:25:17;;;;;;;6.30;4.93;;;;;;;10.19;100.00;99560.22;5053504;28;20052;-81
2021/12/31 03:27:43;;;;;;;5.68;4.90;;;;;;;10.31;100.00;99584.88;5053455;28;20495;-81
2021/12/31 03:30:10;;;;;;;9.00;5.13;;;;;;;10.24;100.00;99576.53;5054966;28;20029;-81
2021/12/31 03:32:36;;;;;;;5.43;4.75;;;;;;;10.17;100.00;99564.66;5054616;28;20392;-82
2021/12/31 03:35:02;;;;;;;6.57;5.10;;;;;;;10.16;100.00;99562.16;5054742;28;20021;-81
2021/12/31 03:37:28;;;;;;;8.65;5.88;;;;;;;10.26;100.00;99573.00;5054420;28;20029;-81
2021/12/31 03:39:53;;;;;;;5.47;4.97;;;;;;;10.16;100.00;99560.38;5054577;28;20020;-81
2021/12/31 03:42:19;;;;;;;7.60;5.43;;;;;;;10.09;100.00;99553.78;5054692;28;20056;-81
2021/12/31 03:44:45;;;;;;;7.18;5.65;;;;;;;10.27;100.00;99588.53;5053161;28;20033;-82
2021/12/31 03:47:11;;;;;;;6.50;5.60;;;;;;;10.26;100.00;99583.41;5053309;28;20029;-83
2021/12/31 03:49:36;;;;;;;7.38;5.63;;;;;;;10.22;100.00;99578.31;5052874;28;20443;-83
2021/12/31 03:52:02;;;;;;;6.15;4.50;;;;;;;10.22;100.00;99572.25;5053054;28;20447;-82
2021/12/31 03:54:28;;;;;;;5.90;4.50;;;;;;;10.15;100.00;99566.47;5049796;28;20032;-82
2021/12/31 03:56:53;;;;;;;5.88;4.30;;;;;;;10.17;100.00;99566.44;5054491;28;20025;-82
2021/12/31 03:59:19;;;;;;;6.38;4.75;;;;;;;10.23;100.00;99584.34;5054054;28;20043;-83
2021/12/31 04:01:44;;;;;;;7.40;5.00;;;;;;;10.16;100.00;99581.22;5053910;28;20112;-82
2021/12/31 04:04:10;;;;;;;4.53;4.13;;;;;;;10.26;100.00;99593.81;5052947;28;20438;-83
2021/12/31 04:06:36;;;;;;;5.28;4.78;;;;;;;10.23;100.00;99579.16;5052423;28;20457;-82
2021/12/31 04:09:01;;;;;;;6.47;4.68;;;;;;;10.17;100.00;99572.47;5071420;28;20077;-82
2021/12/31 04:11:27;;;;;;;4.97;4.15;;;;;;;10.25;100.00;99590.38;5054643;28;20127;-82
2021/12/31 04:13:52;;;;;;;5.32;4.53;;;;;;;10.16;100.00;99559.53;5071522;28;20048;-82
2021/12/31 04:16:18;;;;;;;6.82;4.85;;;;;;;10.29;100.00;99575.47;5071870;28;20383;-82
2021/12/31 04:18:43;;;;;;;7.07;4.68;;;;;;;10.23;100.00;99573.94;5071157;28;20044;-82
2021/12/31 04:21:09;;;;;;;4.63;4.22;;;;;;;10.19;100.00;99567.19;5054419;28;20048;-82
2021/12/31 04:23:47;;;;;;;5.65;4.10;;;;;;;10.30;100.00;99590.16;5070977;28;20033;-82
2021/12/31 04:26:14;;;;;;;5.90;4.30;;;;;;;10.19;100.00;99572.41;5071444;28;20128;-82
2021/12/31 04:28:39;;;;;;;5.15;4.28;;;;;;;10.27;100.00;99582.50;5054202;28;20032;-82
2021/12/31 04:31:05;;;;;;;4.40;3.90;;;;;;;10.28;100.00;99591.97;5054400;28;20089;-84
2021/12/31 04:33:30;;;;;;;4.93;4.07;;;;;;;10.28;100.00;99591.97;5054056;28;20486;-84
2021/12/31 04:35:55;;;;;;;4.60;4.10;;;;;;;10.30;100.00;99593.59;5071155;28;20032;-84
2021/12/31 04:38:21;;;;;;;5.22;4.00;;;;;;;10.28;100.00;99585.03;5054289;28;20032;-84
2021/12/31 04:40:47;;;;;;;4.55;4.00;;;;;;;10.20;100.00;99574.94;5054129;28;20541;-82
2021/12/31 04:43:12;;;;;;;6.95;4.43;;;;;;;10.15;100.00;99565.66;5070768;28;20035;-81
2021/12/31 04:45:38;;;;;;;7.22;3.85;;;;;;;10.30;100.00;99596.22;5067806;28;20040;-81
2021/12/31 04:48:04;;;;;;;4.65;3.78;;;;;;;10.28;100.00;99581.56;5052170;28;20404;-81
2021/12/31 04:50:29;;;;;;;4.32;3.38;;;;;;;10.23;100.00;99580.00;5051879;28;20033;-81
2021/12/31 04:52:55;;;;;;;4.95;3.30;;;;;;;10.30;100.00;99595.38;5051923;28;20110;-81
2021/12/31 04:55:20;;;;;;;4.13;3.60;;;;;;;10.10;100.00;99565.03;5053576;28;20043;-82
2021/12/31 04:57:48;;;;;;;3.50;3.20;;;;;;;10.22;100.00;99583.50;5051398;28;20053;-81
2021/12/31 05:00:14;;;;;;;3.75;3.40;;;;;;;10.23;100.00;99590.41;5051836;28;20476;-81
2021/12/31 05:02:40;;;;;;;3.97;3.45;;;;;;;10.23;100.00;99595.59;5052310;28;20063;-84
2021/12/31 05:05:06;;;;;;;4.45;3.58;;;;;;;10.27;100.00;99603.31;5051470;28;20053;-83
2021/12/31 05:07:31;;;;;;;3.90;3.40;;;;;;;10.27;100.00;99604.16;5052964;28;20411;-83
2021/12/31 05:09:57;;;;;;;4.45;3.55;;;;;;;10.24;100.00;99599.97;5051872;28;20078;-83
2021/12/31 05:12:26;;;;;;;4.90;3.72;;;;;;;10.21;100.00;99597.44;5053052;28;20409;-84
2021/12/31 05:14:52;;;;;;;3.47;3.17;;;;;;;10.22;100.00;99596.53;5051700;28;20025;-81
2021/12/31 05:17:17;;;;;;;3.92;3.28;;;;;;;10.18;100.00;99589.78;5051567;28;20025;-81
2021/12/31 05:19:44;;;;;;;3.30;3.00;;;;;;;10.30;100.00;99611.84;5051148;28;20445;-81
2021/12/31 05:22:13;;;;;;;3.47;3.17;;;;;;;10.22;100.00;99593.94;5051383;28;20028;-81
2021/12/31 05:24:39;;;;;;;3.72;3.22;;;;;;;10.33;100.00;99601.28;5051249;28;20452;-81
2021/12/31 05:27:05;;;;;;;3.10;2.80;;;;;;;10.31;100.00;99605.69;5052736;28;20033;-81
2021/12/31 05:29:30;;;;;;;4.43;2.88;;;;;;;10.32;100.00;99602.19;5052567;28;20503;-82
2021/12/31 05:31:56;;;;;;;3.70;3.15;;;;;;;10.30;100.00;99601.41;5052750;28;20025;-82
2021/12/31 05:34:22;;;;;;;5.63;2.80;;;;;;;10.32;100.00;99606.53;5052492;28;20037;-82
2021/12/31 05:36:48;;;;;;;4.40;3.33;;;;;;;10.37;100.00;99613.25;5052637;28;20037;-81
2021/12/31 05:39:14;;;;;;;3.20;2.90;;;;;;;10.32;100.00;99607.38;5052496;28;20032;-81
2021/12/31 05:41:40;;;;;;;3.40;2.78;;;;;;;10.17;100.00;99582.88;5052193;28;20032;-79
2021/12/31 05:44:08;;;;;;;4.03;3.03;;;;;;;10.34;100.00;99609.94;5052342;28;20425;-81
2021/12/31 05:46:34;;;;;;;3.20;2.88;;;;;;;10.25;100.00;99595.59;5050683;28;20025;-81
2021/12/31 05:49:01;;;;;;;2.92;2.72;;;;;;;10.36;100.00;99614.13;5052083;28;20033;-82
2021/12/31 05:51:27;;;;;;;3.33;2.75;;;;;;;10.32;100.00;99609.16;5052089;28;20021;-80
2021/12/31 05:53:54;;;;;;;4.53;3.10;;;;;;;10.30;100.00;99609.22;5050967;28;20028;-81
2021/12/31 05:56:19;;;;;;;3.78;2.92;;;;;;;10.26;100.00;99589.47;5050897;28;20570;-81
2021/12/31 05:58:44;;;;;;;3.35;2.78;;;;;;;10.27;100.00;99592.91;5051947;28;20053;-81
2021/12/31 06:01:10;;;;;;;3.70;2.83;;;;;;;10.26;100.00;99596.44;5052300;28;20067;-80
2021/12/31 06:03:35;;;;;;;3.33;2.90;;;;;;;10.33;100.00;99616.91;5051922;28;20468;-80
2021/12/31 06:06:01;;;;;;;3.05;2.75;;;;;;;10.29;100.00;99612.75;5050796;28;20024;-81
2021/12/31 06:08:26;;;;;;;3.00;2.70;;;;;;;10.21;100.00;99600.06;5051809;28;20033;-81
2021/12/31 06:10:52;;;;;;;4.25;3.10;;;;;;;10.31;100.00;99613.50;5051870;28;20032;-80
2021/12/31 06:13:17;;;;;;;4.95;2.97;;;;;;;10.30;100.00;99613.59;5051922;28;20591;-82
2021/12/31 06:15:44;;;;;;;4.28;2.85;;;;;;;10.16;100.00;99593.38;5049482;28;20132;-83
2021/12/31 06:18:10;;;;;;;3.95;2.60;;;;;;;10.25;100.00;99616.41;5050399;28;20052;-82
2021/12/31 06:20:41;;;;;;;3.50;2.42;;;;;;;10.20;100.00;99613.16;5050443;28;20059;-84
2021/12/31 06:23:07;;;;;;;4.28;2.75;;;;;;;10.07;100.00;99604.19;5051608;28;20032;-81
2021/12/31 06:25:33;;;;;;;5.70;3.00;;;;;;;10.16;100.00;99633.25;5051369;28;20032;-80
2021/12/31 06:28:00;;;;;;;2.50;2.30;;;;;;;10.15;100.00;99630.72;5051406;28;20025;-81
2021/12/31 06:30:27;;;;;;;2.78;2.58;;;;;;;10.09;100.00;99617.97;5051437;28;20529;-81
2021/12/31 06:33:02;;;;;;;4.13;2.45;;;;;;;10.20;100.00;99641.78;5051854;28;20115;-81
2021/12/31 06:35:28;;;;;;;3.42;2.72;;;;;;;10.16;100.00;99641.06;5051531;28;20137;-82
2021/12/31 06:37:56;;;;;;;2.80;2.60;;;;;;;10.15;100.00;99636.75;5033630;28;20440;-81
2021/12/31 06:40:23;;;;;;;3.28;2.60;;;;;;;10.15;100.00;99628.09;5050476;28;20427;-80
2021/12/31 06:42:50;;;;;;;2.58;2.38;;;;;;;10.12;100.00;99631.72;5051663;28;20025;-80
2021/12/31 06:45:16;;;;;;;2.40;2.20;;;;;;;10.09;100.00;99628.41;5051437;28;20021;-80
2021/12/31 06:47:42;;;;;;;3.00;2.67;;;;;;;10.18;100.00;99644.44;5051126;28;20855;-80
2021/12/31 06:50:13;;;;;;;2.70;2.50;;;;;;;10.22;100.00;99653.78;5050186;28;20116;-80
2021/12/31 06:52:39;;;;;;;3.83;2.70;;;;;;;10.12;100.00;99642.13;5051287;28;20029;-80
2021/12/31 06:55:08;;;;;;;4.18;2.70;;;;;;;10.20;100.00;99652.19;5050304;28;20025;-81
2021/12/31 06:57:35;;;;;;;2.80;2.60;;;;;;;10.19;100.00;99648.72;5050921;28;20024;-80
2021/12/31 07:00:01;;;;;;;4.38;2.75;;;;;;;10.11;100.00;99627.44;5050335;28;20025;-80
2021/12/31 07:02:28;;;;;;;2.97;2.65;;;;;;;10.14;100.00;99636.84;5051387;28;20211;-80
2021/12/31 07:04:54;;;;;;;3.50;2.65;;;;;;;10.19;100.00;99646.13;5051586;28;20029;-82
2021/12/31 07:07:20;;;;;;;3.00;2.70;;;;;;;10.20;100.00;99655.63;5051351;28;20074;-82
2021/12/31 07:09:46;;;;;;;3.10;2.80;;;;;;;10.22;100.00;99656.41;5051046;28;20107;-81
2021/12/31 07:12:12;;;;;;;4.05;2.83;;;;;;;10.19;100.00;99645.28;5051446;28;20033;-81
2021/12/31 07:14:37;;;;;;;3.58;2.60;;;;;;;10.18;100.00;99636.63;5049594;28;20036;-81
2021/12/31 07:17:03;;;;;;;3.97;2.80;;;;;;;10.14;100.00;99637.69;5050323;28;20029;-81
2021/12/31 07:19:32;;;;;;;3.13;2.70;;;;;;;10.28;100.00;99668.34;5051120;28;20148;-82
2021/12/31 07:22:00;;;;;;;4.72;3.10;;;;;;;10.28;100.00;99662.25;5049676;28;20025;-84
2021/12/31 07:24:27;;;;;;;3.33;2.92;;;;;;;10.31;100.00;99664.75;5049501;28;20029;-84
2021/12/31 07:26:53;;;;;;;5.43;3.28;;;;;;;10.28;100.00;99657.94;5053500;28;20032;-84
2021/12/31 07:29:18;;;;;;;5.13;3.80;;;;;;;10.09;100.00;99628.41;5035704;28;20041;-84
2021/12/31 07:31:45;;;;;;;5.75;3.40;;;;;;;10.32;100.00;99658.59;5054545;28;20033;-83
2021/12/31 07:34:13;;;;;;;4.57;3.35;;;;;;;10.28;100.00;99660.53;5050331;28;20033;-83
2021/12/31 07:36:41;;;;;;;4.97;3.03;;;;;;;10.18;100.00;99647.03;5053064;28;20431;-84
2021/12/31 07:39:10;;;;;;;4.03;3.17;;;;;;;10.25;100.00;99665.88;5068913;28;20550;-83
2021/12/31 07:41:37;;;;;;;3.45;3.03;;;;;;;10.28;100.00;99670.06;5071407;28;20121;-85
2021/12/31 07:44:02;;;;;;;5.35;2.97;;;;;;;10.18;100.00;99662.66;5038488;28;20033;-85
2021/12/31 07:46:29;;;;;;;4.05;3.20;;;;;;;10.33;100.00;99675.94;5071719;28;20078;-84
2021/12/31 07:48:54;;;;;;;4.72;3.47;;;;;;;10.33;100.00;99681.16;5055184;28;20024;-84
2021/12/31 07:51:19;;;;;;;5.30;2.95;;;;;;;10.34;100.00;99682.84;5071907;28;20451;-84
2021/12/31 07:53:45;;;;;;;4.72;3.25;;;;;;;10.41;100.00;99692.91;5051370;28;20139;-81
2021/12/31 07:56:10;;;;;;;2.90;2.50;;;;;;;10.37;100.00;99670.53;5051661;28;20037;-83
2021/12/31 07:58:36;;;;;;;4.97;2.85;;;;;;;10.47;100.00;99694.38;5051193;28;20099;-83
2021/12/31 08:01:02;;;;;;;2.95;2.40;;;;;;;10.55;100.00;99705.28;5051686;28;20040;-83
2021/12/31 08:03:27;;;;;;;3.47;3.05;;;;;;;10.51;100.00;99695.94;5034575;28;20040;-83
2021/12/31 08:05:53;;;;;;;4.22;2.70;;;;;;;10.45;100.00;99685.81;5051580;28;20098;-83
2021/12/31 08:08:19;;;;;;;3.17;2.88;;;;;;;10.53;100.00;99703.66;5051426;28;20037;-86
2021/12/31 08:10:45;;;;;;;5.35;4.30;;;;;;;10.56;100.00;99688.75;5051129;28;20167;-84
2021/12/31 08:13:11;;;;;;;7.43;6.57;;;;;;;10.59;100.00;99706.84;5034752;28;20144;-80
2021/12/31 08:15:37;;;;;;;9.50;6.65;;;;;;;10.60;100.00;99694.66;5051314;28;20029;-82
2021/12/31 08:18:04;;;;;;;5.85;5.00;;;;;;;10.57;100.00;99682.59;5051306;28;20519;-82
2021/12/31 08:20:29;;;;;;;5.25;4.10;;;;;;;10.60;100.00;99671.22;5051077;28;20040;-81
2021/12/31 08:23:09;;;;;;;3.90;2.83;;;;;;;10.73;100.00;99678.38;5051004;28;20033;-83
2021/12/31 08:25:37;;;;;;;4.80;3.65;;;;;;;10.81;100.00;99688.44;5051036;28;20041;-84
2021/12/31 08:28:03;;;;;;;4.18;3.17;;;;;;;10.82;100.00;99676.25;5051267;28;20408;-84
2021/12/31 08:30:29;;;;;;;4.43;3.63;;;;;;;10.91;100.00;99689.72;5034469;28;20044;-84
2021/12/31 08:32:55;;;;;;;3.15;2.67;;;;;;;10.93;100.00;99669.63;5051522;28;20028;-84
2021/12/31 08:35:21;;;;;;;5.43;3.03;;;;;;;11.00;100.00;99670.19;5051081;28;20037;-83
2021/12/31 08:37:46;;;;;;;4.90;3.05;;;;;;;11.09;100.00;99676.72;5049954;28;20153;-84
2021/12/31 08:40:12;;;;;;;3.75;2.78;;;;;;;11.12;100.00;99673.94;5050978;28;20037;-83
2021/12/31 08:42:40;;;;;;;8.40;5.70;;;;;;;11.10;100.00;99666.22;5050616;28;20021;-81
2021/12/31 08:45:07;;;;;;;4.93;4.43;;;;;;;11.13;100.00;99673.06;5034269;28;20037;-80
2021/12/31 08:47:32;;;;;;;4.03;2.85;;;;;;;11.09;100.00;99674.13;5050655;28;20044;-83
2021/12/31 08:49:58;;;;;;;5.28;3.35;;;;;;;11.06;100.00;99666.44;5050734;28;20029;-83
2021/12/31 08:52:24;;;;;;;4.28;3.03;;;;;;;11.06;100.00;99671.66;5030324;28;20436;-83
2021/12/31 08:54:50;;;;;;;4.22;2.83;;;;;;;11.09;100.00;99674.13;5015527;28;20112;-92
2021/12/31 08:57:16;;;;;;;3.88;2.75;;;;;;;11.04;100.00;99668.25;5037316;28;20073;-91
2021/12/31 08:59:47;;;;;;;4.63;3.05;;;;;;;11.09;100.00;99679.34;5032498;28;20064;-92
2021/12/31 09:03:22;;;;;;;4.00;2.60;;;;;;;11.02;100.00;99672.72;5014248;28;20402;-94
2021/12/31 09:05:49;;;;;;;2.33;2.13;;;;;;;11.05;100.00;99675.19;4926714;28;20038;-93
2021/12/31 09:08:35;;;;;;;2.55;2.30;;;;;;;11.04;100.00;99674.34;4955043;29;20032;-91
2021/12/31 09:11:56;;;;;;;3.55;2.20;;;;;;;11.04;100.00;99668.25;4939224;29;20592;-94
2021/12/31 09:14:23;;;;;;;3.33;2.65;;;;;;;11.10;100.00;99671.44;4917487;29;20035;-90
2021/12/31 09:16:51;;;;;;;3.45;2.55;;;;;;;10.81;100.00;99636.34;4916193;29;20042;-87
2021/12/31 09:19:17;;;;;;;4.72;3.10;;;;;;;10.95;100.00;99653.91;5158048;23;20053;-90
2021/12/31 09:21:42;;;;;;;4.55;2.85;;;;;;;11.01;100.00;99669.28;5012750;28;20037;-84
2021/12/31 09:24:55;;;;;;;3.35;2.80;;;;;;;11.13;100.00;99681.72;5015028;28;20025;-95
2021/12/31 09:27:21;;;;;;;4.00;2.97;;;;;;;11.15;100.00;99679.88;4978801;28;20046;-89
2021/12/31 09:29:47;;;;;;;4.72;3.22;;;;;;;11.17;100.00;99672.84;4971696;28;20474;-88
2021/12/31 09:32:12;;;;;;;3.97;2.75;;;;;;;11.18;100.00;99671.91;4972283;28;20035;-89
2021/12/31 09:34:38;;;;;;;3.40;2.50;;;;;;;11.19;100.00;99672.75;4973320;28;20622;-87
2021/12/31 09:37:03;;;;;;;2.80;2.40;;;;;;;11.31;100.00;99674.75;4956033;28;20025;-91
2021/12/31 09:39:29;;;;;;;3.60;2.80;;;;;;;11.39;100.00;99674.38;4972482;28;20503;-87
2021/12/31 09:41:54;;;;;;;9.55;6.20;;;;;;;11.48;100.00;99676.53;4956367;28;20069;-89
2021/12/31 09:44:20;;;;;;;10.98;6.63;;;;;;;11.54;100.00;99665.78;4955975;28;20427;-84
2021/12/31 09:46:46;;;;;;;13.10;7.93;;;;;;;11.69;100.00;99662.41;4971600;28;20030;-89
2021/12/31 09:49:12;;;;;;;20.77;13.38;;;;;;;11.80;100.00;99656.66;4971668;28;20039;-89
2021/12/31 09:52:27;;;;;;;25.67;15.65;;;;;;;11.98;100.00;99662.72;4917380;29;20169;-96
2021/12/31 09:55:13;;;;;;;15.88;9.32;;;;;;;12.10;100.00;99662.06;4860039;29;20053;-93
2021/12/31 09:57:58;;;;;;;11.65;7.45;;;;;;;12.03;100.00;99660.69;4822559;29;20046;-85
2021/12/31 10:00:26;;;;;;;9.25;5.38;;;;;;;11.92;100.00;99648.19;4811850;29;20471;-86
2021/12/31 10:03:11;;;;;;;8.40;5.50;;;;;;;11.94;100.00;99650.75;4823765;29;20120;-86
2021/12/31 10:05:41;;;;;;;5.18;3.70;;;;;;;11.99;100.00;99654.78;4824026;29;20053;-89
2021/12/31 10:08:25;;;;;;;4.70;2.97;;;;;;;12.03;100.00;99657.25;4824434;29;20046;-89
2021/12/31 10:11:09;;;;;;;2.83;2.50;;;;;;;12.09;100.00;99646.47;4828701;29;20045;-88
2021/12/31 10:13:50;;;;;;;6.60;3.00;;;;;;;12.05;100.00;99637.97;4838833;29;20489;-87
2021/12/31 10:16:26;;;;;;;3.80;2.67;;;;;;;12.12;100.00;99649.75;4839608;29;20487;-89
2021/12/31 10:19:14;;;;;;;3.22;2.83;;;;;;;12.13;100.00;99642.75;4840099;29;20565;-88
2021/12/31 10:21:54;;;;;;;3.33;3.03;;;;;;;12.13;100.00;99643.59;4857773;29;20057;-89
2021/12/31 10:24:34;;;;;;;6.25;2.92;;;;;;;12.14;100.00;99645.31;4846530;29;20425;-89
2021/12/31 10:27:17;;;;;;;3.97;3.00;;;;;;;12.11;100.00;99637.63;4876870;29;20550;-88
2021/12/31 10:30:26;;;;;;;3.22;2.60;;;;;;;12.07;100.00;99636.13;4893794;29;20052;-90
2021/12/31 10:32:52;;;;;;;4.00;2.92;;;;;;;12.06;100.00;99644.03;4913211;29;20047;-83
2021/12/31 10:35:20;;;;;;;56.17;34.03;;;;;;;11.91;100.00;99635.22;4929637;29;20048;-83
2021/12/31 10:38:01;;;;;;;88.13;53.15;;;;;;;11.92;100.00;99649.97;4934887;29;20507;-83
2021/12/31 10:40:41;;;;;;;39.38;24.60;;;;;;;11.90;100.00;99649.22;4893903;29;20060;-82
2021/12/31 10:43:17;;;;;;;24.20;17.15;;;;;;;11.92;100.00;99656.03;4878416;29;20035;-82
2021/12/31 10:46:10;;;;;;;58.42;49.15;;;;;;;11.78;100.00;99621.09;4893962;29;20428;-83
2021/12/31 10:48:50;;;;;;;29.38;24.40;;;;;;;11.87;100.00;99636.31;4894078;29;20063;-83
2021/12/31 10:51:35;;;;;;;12.43;10.70;;;;;;;11.86;100.00;99621.59;4894160;29;20041;-82
2021/12/31 10:54:37;;;;;;;5.45;4.95;;;;;;;11.85;100.00;99619.91;4894099;29;20469;-81
2021/12/31 10:57:03;;;;;;;3.88;3.20;;;;;;;11.70;100.00;99591.03;4894008;29;20048;-81
2021/12/31 10:59:33;;;;;;;4.22;3.35;;;;;;;12.00;100.00;99629.53;4878174;29;20494;-81
2021/12/31 11:02:00;;;;;;;4.43;2.90;;;;;;;12.03;100.00;99625.91;4893516;29;20036;-81
2021/12/31 11:04:28;;;;;;;3.60;2.58;;;;;;;12.09;100.00;99622.97;4941854;28;20129;-81
2021/12/31 11:06:55;;;;;;;4.18;2.47;;;;;;;12.14;100.00;99619.22;4972561;28;20047;-81
2021/12/31 11:09:23;;;;;;;4.95;2.70;;;;;;;12.15;100.00;99613.06;4974142;28;20027;-81
2021/12/31 11:11:49;;;;;;;3.20;2.78;;;;;;;12.23;100.00;99621.31;5012893;28;20452;-81
2021/12/31 11:14:19;;;;;;;3.10;2.72;;;;;;;12.12;100.00;99597.53;5016286;28;20029;-83
2021/12/31 11:16:44;;;;;;;5.22;3.88;;;;;;;12.27;100.00;99618.56;4999417;28;20037;-81
2021/12/31 11:19:11;;;;;;;5.60;3.55;;;;;;;12.23;100.00;99615.25;5032376;28;20053;-82
2021/12/31 11:21:37;;;;;;;5.57;4.07;;;;;;;12.20;100.00;99607.59;5032280;28;20041;-82
2021/12/31 11:24:31;;;;;;;10.25;7.57;;;;;;;12.25;100.00;99613.41;4999434;28;20034;-82
2021/12/31 11:27:31;;;;;;;7.03;5.07;;;;;;;12.22;100.00;99617.03;5028119;28;20036;-82
2021/12/31 11:29:59;;;;;;;15.73;10.20;;;;;;;12.16;100.00;99613.91;4973721;28;20557;-83
2021/12/31 11:32:56;;;;;;;18.70;14.52;;;;;;;12.12;100.00;99608.00;4925018;28;20093;-83
2021/12/31 11:35:32;;;;;;;29.05;20.65;;;;;;;12.04;100.00;99602.34;4973610;28;20066;-79